^^
Station Historical Data
 
Daily Summary for October 21, 2017 Units:  Metric    English   Both
« Previous Day
Next Day »
Daily Weekly Monthly Yearly Custom
  Current: High: Low: Average:
Temperature: 15.0 °C 15.0 °C 11.6 °C 12.4 °C
Dew Point: 13.7 °C 13.7 °C 9.4 °C 10.5 °C
Humidity: 92% 95% 82% 88%
Wind Speed: 7.4km/h 27.8km/h 3.7km/h 15.5km/h
Wind Gust: 7.4km/h 27.8km/h - -
WindSouth - - South
Pressure: 1006.3 hPa 1009.7 hPa 1005.6 hPa -
Precipitation: 0.5 mm      
Historical Graphs
 
 
Tabular Data for October 21, 2017
Time Temperature Dew Point Pressure Wind Wind Speed Wind Gust Humidity Rainfall Rate (Hourly) solar Conditions
00:02 13.1 °C 10.1 °C 1009.4 hPa West 14.8 km/h 14.8 km/h 82% 0.0 mm 0.0 W/m2 RA
00:07 13.1 °C 10.1 °C 1009.4 hPa WSW 3.7 km/h 3.7 km/h 82% 0.0 mm 0.0 W/m2 RA
00:12 13.0 °C 10.0 °C 1009.4 hPa SSW 7.4 km/h 7.4 km/h 82% 0.0 mm 0.0 W/m2 FEW
00:17 13.0 °C 10.2 °C 1009.4 hPa WSW 9.3 km/h 9.3 km/h 83% 0.0 mm 0.0 W/m2 FEW
00:22 13.0 °C 10.2 °C 1009.4 hPa WSW 7.4 km/h   83% 0.0 mm 0.0 W/m2 FEW
00:27 12.9 °C 10.1 °C 1009.7 hPa South 11.7 km/h 11.7 km/h 83% 0.0 mm 0.0 W/m2 FEW
00:32 12.8 °C 10.2 °C 1009.7 hPa SSW 9.0 km/h 9.0 km/h 84% 0.0 mm 0.0 W/m2 FEW
00:37 12.7 °C 10.1 °C 1009.7 hPa SSE 7.4 km/h 7.4 km/h 84% 0.0 mm 0.0 W/m2 FEW
00:42 12.6 °C 10.2 °C 1009.7 hPa South 16.7 km/h 16.7 km/h 85% 0.0 mm 0.0 W/m2 BKN
00:47 12.6 °C 10.1 °C 1009.7 hPa South 18.3 km/h 18.3 km/h 85% 0.0 mm 0.0 W/m2 BKN
00:52 12.6 °C 10.1 °C 1009.7 hPa SSW 16.3 km/h 16.3 km/h 85% 0.0 mm 0.0 W/m2 BKN
00:57 12.6 °C 10.1 °C 1009.4 hPa South 13.4 km/h 13.4 km/h 85% 0.0 mm 0.0 W/m2 BKN
01:02 12.5 °C 10.2 °C 1009.4 hPa SW 13.0 km/h 13.0 km/h 86% 0.0 mm 0.0 W/m2 BKN
01:07 12.5 °C 10.2 °C 1009.4 hPa South 9.3 km/h 9.3 km/h 86% 0.0 mm 0.0 W/m2 BKN
01:12 12.4 °C 10.2 °C 1009.7 hPa SSW 10.0 km/h 10.0 km/h 86% 0.0 mm 0.0 W/m2 BKN
01:17 12.4 °C 10.1 °C 1009.7 hPa South 13.4 km/h 13.4 km/h 86% 0.0 mm 0.0 W/m2 BKN
01:22 12.3 °C 10.2 °C 1009.7 hPa South 7.4 km/h 7.4 km/h 87% 0.0 mm 0.0 W/m2 BKN
01:27 12.3 °C 10.2 °C 1009.7 hPa South 11.1 km/h 11.1 km/h 87% 0.0 mm 0.0 W/m2 BKN
01:32 12.3 °C 10.2 °C 1009.4 hPa South 11.1 km/h 11.1 km/h 87% 0.0 mm 0.0 W/m2 BKN
01:37 12.2 °C 10.1 °C 1009.4 hPa SSE 9.3 km/h 9.3 km/h 87% 0.0 mm 0.0 W/m2 BKN
01:42 12.2 °C 10.2 °C 1009.4 hPa SSE 11.7 km/h 11.7 km/h 88% 0.0 mm 0.0 W/m2 BKN
01:47 12.1 °C 10.2 °C 1009.4 hPa South 7.4 km/h 7.4 km/h 88% 0.0 mm 0.0 W/m2 BKN
01:52 12.0 °C 10.1 °C 1009.4 hPa South 11.7 km/h 11.7 km/h 88% 0.0 mm 0.0 W/m2 BKN
01:57 12.0 °C 10.1 °C 1009.4 hPa South 9.3 km/h 9.3 km/h 88% 0.0 mm 0.0 W/m2 BKN
02:02 12.0 °C 10.1 °C 1009.4 hPa SSE 9.3 km/h 9.3 km/h 88% 0.0 mm 0.0 W/m2 BKN
02:07 12.0 °C 10.1 °C 1009.4 hPa SSE 10.0 km/h 10.0 km/h 88% 0.0 mm 0.0 W/m2 BKN
02:12 11.9 °C 10.0 °C 1009.4 hPa South 9.3 km/h 9.3 km/h 88% 0.0 mm 0.0 W/m2 BKN
02:17 11.8 °C 9.9 °C 1009.4 hPa South 9.3 km/h 9.3 km/h 88% 0.0 mm 0.0 W/m2 BKN
02:22 11.8 °C 9.8 °C 1009.0 hPa SE 9.3 km/h 9.3 km/h 88% 0.0 mm 0.0 W/m2 BKN
02:27 11.7 °C 9.8 °C 1009.0 hPa South 13.0 km/h 13.0 km/h 88% 0.0 mm 0.0 W/m2 BKN
02:32 11.7 °C 9.7 °C 1009.0 hPa SSE 11.7 km/h 11.7 km/h 88% 0.0 mm 0.0 W/m2 BKN
02:37 11.6 °C 9.7 °C 1009.0 hPa SSE 9.3 km/h 9.3 km/h 88% 0.0 mm 0.0 W/m2 BKN
02:42 11.6 °C 9.6 °C 1009.0 hPa SE 15.1 km/h 15.1 km/h 88% 0.0 mm 0.0 W/m2 BKN
02:47 11.6 °C 9.6 °C 1009.0 hPa SSE 11.1 km/h 11.1 km/h 88% 0.0 mm 0.0 W/m2 BKN
02:52 11.6 °C 9.6 °C 1009.0 hPa SSE 13.0 km/h 13.0 km/h 88% 0.0 mm 0.0 W/m2 BKN
02:57 11.6 °C 9.6 °C 1008.7 hPa SSE 15.1 km/h 15.1 km/h 88% 0.0 mm 0.0 W/m2 BKN
03:02 11.7 °C 9.7 °C 1008.7 hPa South 11.1 km/h 11.1 km/h 88% 0.0 mm 0.0 W/m2 BKN
03:07 11.7 °C 9.7 °C 1008.7 hPa South 15.1 km/h 15.1 km/h 88% 0.0 mm 0.0 W/m2 BKN
03:12 11.7 °C 9.7 °C 1008.7 hPa South 16.7 km/h 16.7 km/h 88% 0.0 mm 0.0 W/m2 BKN
03:17 11.7 °C 9.8 °C 1008.7 hPa SSE 13.4 km/h 13.4 km/h 88% 0.0 mm 0.0 W/m2 BKN
03:22 11.7 °C 9.8 °C 1008.7 hPa South 9.3 km/h 9.3 km/h 88% 0.0 mm 0.0 W/m2 BKN
03:27 11.7 °C 9.8 °C 1008.7 hPa SSW 20.4 km/h 20.4 km/h 88% 0.0 mm 0.0 W/m2 BKN
03:32 11.7 °C 9.6 °C 1008.4 hPa South 16.7 km/h 16.7 km/h 87% 0.0 mm 0.0 W/m2 BKN
03:37 11.8 °C 9.7 °C 1008.7 hPa South 13.0 km/h 13.0 km/h 87% 0.0 mm 0.0 W/m2 BKN
03:42 11.8 °C 9.7 °C 1008.7 hPa SE 22.2 km/h 22.2 km/h 87% 0.0 mm 0.0 W/m2 BKN
03:47 11.8 °C 9.7 °C 1008.7 hPa SSE 15.1 km/h 15.1 km/h 87% 0.0 mm 0.0 W/m2 BKN
03:52 11.9 °C 9.8 °C 1008.7 hPa South 15.1 km/h 15.1 km/h 87% 0.0 mm 0.0 W/m2 BKN
03:57 11.9 °C 9.6 °C 1008.4 hPa SW 18.3 km/h 18.3 km/h 86% 0.0 mm 0.0 W/m2 BKN
04:02 11.9 °C 9.6 °C 1008.4 hPa SSW 14.8 km/h 14.8 km/h 86% 0.0 mm 0.0 W/m2 BKN
04:07 11.9 °C 9.6 °C 1008.4 hPa SE 16.7 km/h 16.7 km/h 86% 0.0 mm 0.0 W/m2 BKN
04:12 11.9 °C 9.6 °C 1008.4 hPa SSE 15.1 km/h 15.1 km/h 86% 0.0 mm 0.0 W/m2 BKN
04:17 11.9 °C 9.7 °C 1008.4 hPa SSE 10.0 km/h 10.0 km/h 86% 0.0 mm 0.0 W/m2 BKN
04:22 11.9 °C 9.7 °C 1008.0 hPa South 13.4 km/h 13.4 km/h 86% 0.0 mm 0.0 W/m2 BKN
04:27 11.9 °C 9.7 °C 1008.0 hPa SSE 14.8 km/h 14.8 km/h 86% 0.0 mm 0.0 W/m2 BKN
04:32 11.9 °C 9.7 °C 1008.0 hPa SSE 20.4 km/h 20.4 km/h 86% 0.0 mm 0.0 W/m2 BKN
04:37 12.0 °C 9.7 °C 1007.7 hPa SSE 14.8 km/h 14.8 km/h 86% 0.0 mm 0.0 W/m2 BKN
04:42 12.0 °C 9.7 °C 1007.7 hPa SSE 16.7 km/h 16.7 km/h 86% 0.0 mm 0.0 W/m2 BKN
04:47 12.1 °C 9.8 °C 1007.7 hPa SE 16.7 km/h 16.7 km/h 86% 0.0 mm 0.0 W/m2 BKN
04:52 12.1 °C 9.8 °C 1007.3 hPa SSE 15.1 km/h 15.1 km/h 86% 0.0 mm 0.0 W/m2 BKN
04:57 12.1 °C 9.6 °C 1007.3 hPa SE 16.7 km/h 16.7 km/h 85% 0.0 mm 0.0 W/m2 BKN
05:02 12.1 °C 9.6 °C 1007.7 hPa South 16.7 km/h 16.7 km/h 85% 0.0 mm 0.0 W/m2 BKN
05:07 12.1 °C 9.6 °C 1007.3 hPa SSE 13.4 km/h 13.4 km/h 85% 0.0 mm 0.0 W/m2 BKN
05:19 12.1 °C 9.6 °C 1007.3 hPa SE 9.3 km/h 9.3 km/h 85% 0.0 mm 0.0 W/m2 BKN
05:25 12.1 °C 9.4 °C 1007.3 hPa ESE 13.0 km/h 13.0 km/h 84% 0.0 mm 0.0 W/m2 BKN
05:27 12.1 °C 9.5 °C 1007.3 hPa SE 13.4 km/h 13.4 km/h 84% 0.0 mm 0.0 W/m2 BKN
05:32 12.1 °C 9.5 °C 1007.3 hPa SSE 14.8 km/h 14.8 km/h 84% 0.0 mm 0.0 W/m2 BKN
05:34 12.1 °C 9.5 °C 1007.3 hPa SE 16.7 km/h 16.7 km/h 84% 0.0 mm 0.0 W/m2 BKN
05:38 12.1 °C 9.5 °C 1007.3 hPa South 15.1 km/h 15.1 km/h 84% 0.0 mm 0.0 W/m2 OVC
05:43 12.1 °C 9.5 °C 1007.0 hPa SSE 14.8 km/h 14.8 km/h 84% 0.0 mm 0.0 W/m2 OVC
05:48 12.1 °C 9.5 °C 1007.3 hPa South 18.5 km/h 18.5 km/h 84% 0.0 mm 0.0 W/m2 OVC
05:53 12.1 °C 9.4 °C 1007.0 hPa SSE 11.7 km/h 11.7 km/h 84% 0.0 mm 0.0 W/m2 OVC
05:56 12.1 °C 9.4 °C 1007.0 hPa SSE 9.3 km/h 9.3 km/h 84% 0.0 mm 0.0 W/m2 OVC
05:59 12.1 °C 9.4 °C 1007.0 hPa SE 16.7 km/h 16.7 km/h 84% 0.0 mm 0.0 W/m2 OVC
06:04 12.0 °C 9.4 °C 1007.0 hPa South 16.7 km/h 16.7 km/h 84% 0.0 mm 0.0 W/m2 OVC
06:09 11.9 °C 9.5 °C 1007.0 hPa East 21.7 km/h 21.7 km/h 85% 0.0 mm 0.0 W/m2 OVC
06:14 12.0 °C 9.6 °C 1007.0 hPa South 20.4 km/h 20.4 km/h 85% 0.0 mm 0.0 W/m2 OVC
06:19 12.0 °C 9.6 °C 1006.7 hPa South 18.5 km/h 18.5 km/h 85% 0.0 mm 0.0 W/m2 OVC
06:24 12.0 °C 9.6 °C 1006.7 hPa South 13.0 km/h 13.0 km/h 85% 0.0 mm 0.0 W/m2 OVC
06:29 12.1 °C 9.6 °C 1006.7 hPa SE 14.8 km/h 14.8 km/h 85% 0.0 mm 0.0 W/m2 OVC
06:34 12.1 °C 9.7 °C 1006.7 hPa ESE 16.7 km/h 16.7 km/h 85% 0.0 mm 0.0 W/m2 OVC
06:39 12.2 °C 9.6 °C 1006.7 hPa ESE 16.7 km/h 16.7 km/h 84% 0.0 mm 0.0 W/m2 OVC
06:44 12.2 °C 9.8 °C 1006.7 hPa SE 16.7 km/h 16.7 km/h 85% 0.0 mm 0.0 W/m2 OVC
06:50 12.2 °C 9.6 °C 1006.3 hPa SSE 15.1 km/h 15.1 km/h 84% 0.0 mm 0.0 W/m2 OVC
06:55 12.2 °C 9.8 °C 1006.3 hPa SSE 22.2 km/h 22.2 km/h 85% 0.0 mm 0.0 W/m2 OVC
06:56 12.3 °C 9.7 °C 1006.3 hPa South 16.7 km/h 16.7 km/h 84% 0.0 mm 0.0 W/m2 OVC
07:01 12.3 °C 9.7 °C 1006.3 hPa SSE 16.7 km/h 16.7 km/h 84% 0.0 mm 0.0 W/m2 OVC
07:06 12.3 °C 9.7 °C 1006.3 hPa ESE 18.5 km/h 18.5 km/h 84% 0.0 mm 0.0 W/m2 OVC
07:11 12.3 °C 9.9 °C 1006.3 hPa ENE 14.8 km/h 14.8 km/h 85% 0.0 mm 0.0 W/m2 OVC
07:16 12.4 °C 9.8 °C 1006.3 hPa South 11.1 km/h 11.1 km/h 84% 0.0 mm 0.0 W/m2 OVC
07:21 12.5 °C 9.9 °C 1006.3 hPa ESE 14.8 km/h 14.8 km/h 84% 0.0 mm 0.0 W/m2 OVC
07:26 12.5 °C 9.9 °C 1006.3 hPa SSE 16.7 km/h 16.7 km/h 84% 0.0 mm 0.0 W/m2 OVC
07:31 12.5 °C 9.9 °C 1006.0 hPa ESE 20.4 km/h 20.4 km/h 84% 0.0 mm 0.0 W/m2 OVC
07:36 12.5 °C 9.9 °C 1006.0 hPa South 15.1 km/h 15.1 km/h 84% 0.0 mm 0.0 W/m2 OVC
07:41 12.5 °C 9.9 °C 1006.0 hPa SSE 18.5 km/h 18.5 km/h 84% 0.0 mm 0.0 W/m2 OVC
07:46 12.6 °C 9.9 °C 1006.0 hPa SSW 18.5 km/h 18.5 km/h 84% 0.0 mm 0.0 W/m2 OVC
07:51 12.6 °C 9.9 °C 1006.0 hPa South 18.5 km/h 18.5 km/h 84% 0.0 mm 0.0 W/m2 OVC
07:56 12.6 °C 10.0 °C 1006.0 hPa South 27.8 km/h 27.8 km/h 84% 0.0 mm 0.0 W/m2 OVC
08:01 12.6 °C 10.0 °C 1006.0 hPa SSE 16.7 km/h 16.7 km/h 84% 0.0 mm 0.0 W/m2 OVC
08:06 12.4 °C 10.2 °C 1006.0 hPa SSE 14.8 km/h 14.8 km/h 86% 0.0 mm 0.0 W/m2 OVC
08:11 12.2 °C 10.1 °C 1006.0 hPa SSW 20.4 km/h 20.4 km/h 87% 0.0 mm 0.0 W/m2 OVC
08:16 12.1 °C 10.2 °C 1006.0 hPa South 22.2 km/h 22.2 km/h 88% 0.0 mm 0.0 W/m2 OVC
08:21 12.1 °C 10.3 °C 1006.0 hPa South 18.5 km/h 18.5 km/h 89% 0.0 mm 0.0 W/m2 OVC
08:24 11.9 °C 10.2 °C 1006.0 hPa SSE 24.1 km/h 24.1 km/h 89% 0.0 mm 0.0 W/m2 OVC
08:29 11.8 °C 10.2 °C 1006.0 hPa South 9.3 km/h 9.3 km/h 90% 0.3 mm 9.0 W/m2 RA
08:34 11.7 °C 10.2 °C 1005.6 hPa SSE 18.5 km/h 18.5 km/h 91% 0.3 mm 7.0 W/m2 RA
08:39 11.7 °C 10.2 °C 1006.0 hPa SSE 20.4 km/h 20.4 km/h 91% 0.3 mm 5.0 W/m2 OVC
08:44 11.7 °C 10.3 °C 1005.6 hPa SSW 18.3 km/h 18.3 km/h 91% 0.3 mm 0.0 W/m2 OVC
08:49 11.8 °C 10.3 °C 1006.0 hPa South 20.4 km/h 20.4 km/h 91% 0.3 mm 0.0 W/m2 OVC
08:54 11.8 °C 10.3 °C 1006.0 hPa SE 22.2 km/h 22.2 km/h 91% 0.5 mm 5.0 W/m2 RA
08:59 11.8 °C 10.3 °C 1006.0 hPa SSE 20.4 km/h 20.4 km/h 91% 0.5 mm 9.0 W/m2 RA
09:04 11.8 °C 10.6 °C 1006.0 hPa South 22.2 km/h 22.2 km/h 92% 0.5 mm 25.0 W/m2 OVC
09:09 11.8 °C 10.6 °C 1006.0 hPa SE 26.7 km/h 26.7 km/h 92% 0.5 mm 12.0 W/m2 OVC
09:14 11.8 °C 10.6 °C 1006.0 hPa SSE 22.2 km/h 22.2 km/h 92% 0.5 mm 7.0 W/m2 OVC
09:19 11.8 °C 10.6 °C 1006.0 hPa SSE 18.3 km/h 18.3 km/h 92% 0.5 mm 12.0 W/m2 RA
09:24 11.8 °C 10.7 °C 1006.0 hPa SSE 20.4 km/h 20.4 km/h 93% 0.5 mm 23.0 W/m2 RA
09:29 11.8 °C 10.7 °C 1006.0 hPa SSW 16.7 km/h 16.7 km/h 93% 0.5 mm 39.0 W/m2 OVC
09:34 11.8 °C 10.7 °C 1006.0 hPa South 22.2 km/h 22.2 km/h 93% 0.5 mm 44.0 W/m2 OVC
09:39 11.9 °C 10.9 °C 1006.0 hPa SSE 20.4 km/h 20.4 km/h 94% 0.5 mm 37.0 W/m2 OVC
09:44 12.0 °C 11.1 °C 1006.3 hPa SSE 18.5 km/h 18.5 km/h 94% 0.5 mm 26.0 W/m2 OVC
09:50 12.1 °C 11.1 °C 1006.3 hPa SSW 15.1 km/h 15.1 km/h 94% 0.5 mm 28.0 W/m2 OVC
09:55 12.1 °C 11.2 °C 1006.3 hPa SSE 14.8 km/h 14.8 km/h 94% 0.3 mm 26.0 W/m2 OVC
10:00 12.2 °C 11.2 °C 1006.3 hPa SSE 23.5 km/h 23.5 km/h 94% 0.3 mm 35.0 W/m2 OVC
10:05 12.3 °C 11.3 °C 1006.3 hPa South 20.4 km/h 20.4 km/h 94% 0.3 mm 35.0 W/m2 OVC
10:10 12.3 °C 11.4 °C 1006.3 hPa SE 9.3 km/h 9.3 km/h 94% 0.3 mm 58.0 W/m2 OVC
10:15 12.4 °C 11.4 °C 1006.0 hPa SSE 18.5 km/h 18.5 km/h 94% 0.3 mm 62.0 W/m2 OVC
10:20 12.5 °C 11.7 °C 1006.3 hPa South 13.4 km/h 13.4 km/h 95% 0.0 mm 88.0 W/m2 OVC
10:25 12.6 °C 11.6 °C 1006.0 hPa SSE 14.8 km/h 14.8 km/h 94% 0.0 mm 70.0 W/m2 OVC
10:30 12.7 °C 11.9 °C 1006.3 hPa SSE 7.4 km/h 7.4 km/h 95% 0.0 mm 105.0 W/m2 OVC
10:35 12.7 °C 11.9 °C 1006.0 hPa South 11.1 km/h 11.1 km/h 95% 0.0 mm 95.0 W/m2 OVC
10:40 12.8 °C 12.1 °C 1006.0 hPa SE 22.2 km/h 22.2 km/h 95% 0.0 mm 70.0 W/m2 +DZ
10:45 12.9 °C 12.1 °C 1006.0 hPa South 23.5 km/h 23.5 km/h 95% 0.0 mm 32.0 W/m2 +DZ
10:50 13.0 °C 12.2 °C 1006.3 hPa South 20.4 km/h 20.4 km/h 95% 0.0 mm 120.0 W/m2 +DZ
10:55 13.2 °C 12.4 °C 1006.3 hPa SSE 14.8 km/h 14.8 km/h 95% 0.0 mm 120.0 W/m2 +DZ
11:00 13.2 °C 12.4 °C 1006.3 hPa SSE 16.7 km/h 16.7 km/h 95% 0.0 mm 104.0 W/m2 +DZ
11:05 13.3 °C 12.6 °C 1006.3 hPa South 16.7 km/h 16.7 km/h 95% 0.0 mm 139.0 W/m2 +DZ
11:10 13.5 °C 12.7 °C 1006.3 hPa SSE 15.1 km/h 15.1 km/h 95% 0.0 mm 111.0 W/m2 +DZ
11:15 13.6 °C 12.8 °C 1006.3 hPa SSE 20.1 km/h 20.1 km/h 95% 0.0 mm 137.0 W/m2 +DZ
11:20 13.7 °C 12.9 °C 1006.3 hPa South 13.4 km/h 13.4 km/h 95% 0.0 mm 156.0 W/m2 +DZ
11:25 13.8 °C 13.0 °C 1006.3 hPa SSE 24.1 km/h 24.1 km/h 95% 0.0 mm 95.0 W/m2 +DZ
11:30 13.9 °C 12.9 °C 1006.3 hPa SSW 11.1 km/h 11.1 km/h 94% 0.0 mm 95.0 W/m2 +DZ
11:35 14.0 °C 13.1 °C 1006.3 hPa South 13.0 km/h 13.0 km/h 94% 0.0 mm 111.0 W/m2 +DZ
11:40 14.1 °C 13.2 °C 1006.3 hPa SSW 13.4 km/h 13.4 km/h 94% 0.0 mm 74.0 W/m2 BKN
11:43 14.2 °C 13.2 °C 1006.3 hPa SSW 7.4 km/h 7.4 km/h 94% 0.0 mm 91.0 W/m2 BKN
11:48 14.3 °C 13.3 °C 1006.3 hPa South 18.5 km/h 18.5 km/h 94% 0.0 mm 125.0 W/m2 BKN
11:53 14.4 °C 13.5 °C 1006.3 hPa SW 22.2 km/h 22.2 km/h 94% 0.0 mm 111.0 W/m2 BKN
11:58 14.6 °C 13.4 °C 1006.3 hPa SSE 20.4 km/h 20.4 km/h 93% 0.0 mm 54.0 W/m2 BKN
12:03 14.7 °C 13.4 °C 1006.3 hPa WSW 25.9 km/h 25.9 km/h 92% 0.0 mm 130.0 W/m2 BKN
12:08 14.8 °C 13.5 °C 1006.3 hPa South 16.7 km/h 16.7 km/h 92% 0.0 mm 139.0 W/m2 BKN
12:13 14.8 °C 13.5 °C 1006.3 hPa SSE 22.2 km/h 22.2 km/h 92% 0.0 mm 197.0 W/m2 BKN
12:18 14.9 °C 13.6 °C 1006.3 hPa SW 14.8 km/h 14.8 km/h 92% 0.0 mm 167.0 W/m2 BKN
12:23 15.0 °C 13.7 °C 1006.3 hPa South 7.4 km/h 7.4 km/h 92% 0.0 mm 267.0 W/m2 BKN
Juneau County Weather
Compliments of Weather Underground - 2.75 mb